Time;durP1;ratioP1;P1;durP2;ratioP2;P2;SDS_P1;SDS_P2;PMS_P1;PMS_P2;Temp;Humidity;BMP_temperature;BMP_pressure;BME280_temperature;BME280_humidity;BME280_pressure;Samples;Min_cycle;Max_cycle;Signal;HPM_P1;HPM_P2
2022/04/07 00:01:02;;;;;;;7.13;4.80;;;12.90;95.50;;;;;;5073290;28;20591;-64
2022/04/07 00:03:29;;;;;;;9.07;4.63;;;12.90;95.60;;;;;;5073983;28;20239;-64
2022/04/07 00:05:56;;;;;;;7.70;4.63;;;12.90;95.70;;;;;;5073489;28;20224;-64
2022/04/07 00:08:23;;;;;;;11.13;8.40;;;12.90;95.80;;;;;;5073506;28;20579;-65
2022/04/07 00:10:51;;;;;;;6.13;5.45;;;12.90;95.90;;;;;;5073343;28;20474;-64
2022/04/07 00:13:25;;;;;;;6.35;4.38;;;12.90;95.90;;;;;;5073647;28;20604;-64
2022/04/07 00:15:53;;;;;;;3.67;3.38;;;12.90;95.90;;;;;;5054955;28;20666;-64
2022/04/07 00:18:20;;;;;;;7.32;5.90;;;12.90;96.00;;;;;;5058450;28;20703;-65
2022/04/07 00:20:47;;;;;;;5.90;3.97;;;12.90;96.00;;;;;;5073678;28;20228;-65
2022/04/07 00:23:14;;;;;;;5.28;4.32;;;12.90;96.10;;;;;;5072029;28;20631;-65
2022/04/07 00:25:40;;;;;;;5.10;4.57;;;12.90;96.10;;;;;;5073586;28;20240;-65
2022/04/07 00:28:09;;;;;;;8.10;6.95;;;12.90;96.20;;;;;;5072902;28;20223;-65
2022/04/07 00:30:37;;;;;;;4.55;3.97;;;12.90;96.20;;;;;;5073434;28;20228;-64
2022/04/07 00:33:05;;;;;;;5.82;4.55;;;12.90;96.30;;;;;;5072750;28;20312;-66
2022/04/07 00:35:32;;;;;;;8.82;6.15;;;12.90;96.30;;;;;;5073407;28;20231;-64
2022/04/07 00:37:59;;;;;;;4.65;3.60;;;12.80;96.30;;;;;;5072799;28;20231;-64
2022/04/07 00:40:25;;;;;;;8.35;3.55;;;12.80;96.30;;;;;;5073089;28;20204;-65
2022/04/07 00:42:53;;;;;;;5.35;4.38;;;12.80;96.30;;;;;;5072601;28;20223;-64
2022/04/07 00:45:23;;;;;;;6.25;4.45;;;12.80;96.40;;;;;;5067825;28;20235;-65
2022/04/07 00:47:51;;;;;;;5.07;4.05;;;12.80;96.50;;;;;;5072980;28;20220;-65
2022/04/07 00:50:19;;;;;;;7.70;6.25;;;12.70;96.50;;;;;;5072255;28;20235;-65
2022/04/07 00:52:50;;;;;;;5.55;4.07;;;12.70;96.60;;;;;;5072182;28;20228;-65
2022/04/07 00:55:17;;;;;;;4.18;2.75;;;12.70;96.60;;;;;;5072555;28;20220;-65
2022/04/07 00:57:45;;;;;;;5.40;4.70;;;12.60;96.60;;;;;;5073118;28;20226;-65
2022/04/07 01:00:14;;;;;;;7.32;4.60;;;12.60;96.70;;;;;;5072378;28;20235;-65
2022/04/07 01:02:42;;;;;;;5.90;4.75;;;12.60;96.70;;;;;;5072803;28;20235;-65
2022/04/07 01:05:10;;;;;;;3.60;3.13;;;12.50;96.80;;;;;;5072405;28;20220;-65
2022/04/07 01:07:39;;;;;;;4.55;3.58;;;12.50;96.80;;;;;;5072871;28;20230;-65
2022/04/07 01:10:13;;;;;;;5.18;3.55;;;12.50;96.90;;;;;;5072372;28;20600;-65
2022/04/07 01:12:40;;;;;;;6.80;3.40;;;12.50;96.90;;;;;;5072587;28;20235;-65
2022/04/07 01:15:09;;;;;;;8.27;6.93;;;12.40;96.90;;;;;;5072208;28;20220;-65
2022/04/07 01:17:36;;;;;;;15.07;11.10;;;12.40;97.00;;;;;;5069107;28;20236;-66
2022/04/07 01:20:06;;;;;;;9.07;6.00;;;12.40;97.10;;;;;;5071292;28;20219;-64
2022/04/07 01:22:36;;;;;;;3.65;2.88;;;12.50;97.20;;;;;;5072422;28;20232;-65
2022/04/07 01:25:06;;;;;;;6.05;4.38;;;12.40;97.10;;;;;;5067285;28;20246;-65
2022/04/07 01:27:32;;;;;;;3.53;3.10;;;12.50;97.20;;;;;;5072643;28;20228;-64
2022/04/07 01:30:02;;;;;;;5.03;3.20;;;12.40;97.20;;;;;;5072225;28;20539;-64
2022/04/07 01:32:36;;;;;;;5.68;3.58;;;12.40;97.20;;;;;;5072169;28;20231;-64
2022/04/07 01:35:03;;;;;;;7.18;5.07;;;12.40;97.30;;;;;;5072306;28;20224;-65
2022/04/07 01:37:30;;;;;;;4.80;3.90;;;12.40;97.40;;;;;;5072291;28;20701;-65
2022/04/07 01:39:57;;;;;;;6.45;4.60;;;12.40;97.40;;;;;;5072009;28;20298;-66
2022/04/07 01:42:26;;;;;;;4.47;3.38;;;12.40;97.40;;;;;;5067807;28;20238;-65
2022/04/07 01:44:55;;;;;;;3.38;3.00;;;12.40;97.40;;;;;;5076410;28;20235;-65
2022/04/07 01:47:23;;;;;;;3.33;2.90;;;12.40;97.40;;;;;;5070311;28;20224;-65
2022/04/07 01:50:01;;;;;;;4.40;3.90;;;12.30;97.50;;;;;;5072230;28;20250;-65
2022/04/07 01:52:29;;;;;;;9.52;7.15;;;12.30;97.60;;;;;;5069818;28;20242;-64
2022/04/07 01:54:58;;;;;;;5.32;3.80;;;12.40;97.70;;;;;;5072205;28;20231;-66
2022/04/07 01:57:26;;;;;;;6.80;4.80;;;12.30;97.70;;;;;;5071732;28;20231;-64
2022/04/07 01:59:54;;;;;;;7.63;5.75;;;12.40;97.80;;;;;;5072418;28;20227;-66
2022/04/07 02:02:22;;;;;;;8.45;6.43;;;12.30;97.80;;;;;;5072142;28;20894;-65
2022/04/07 02:04:53;;;;;;;4.30;3.78;;;12.40;97.90;;;;;;5076174;28;20215;-65
2022/04/07 02:07:20;;;;;;;6.45;5.35;;;12.30;97.80;;;;;;5063388;28;20227;-65
2022/04/07 02:09:47;;;;;;;8.00;4.65;;;12.30;98.00;;;;;;5075805;28;20678;-65
2022/04/07 02:12:15;;;;;;;5.78;5.25;;;12.30;98.10;;;;;;5075029;28;20230;-66
2022/04/07 02:14:43;;;;;;;9.68;8.57;;;12.30;98.20;;;;;;5075980;28;20224;-65
2022/04/07 02:17:10;;;;;;;16.95;12.88;;;12.30;98.20;;;;;;5075332;28;20227;-66
2022/04/07 02:19:37;;;;;;;6.63;5.50;;;12.40;98.20;;;;;;5070474;28;20252;-66
2022/04/07 02:22:04;;;;;;;5.60;4.32;;;12.40;98.20;;;;;;5074353;28;20589;-64
2022/04/07 02:24:31;;;;;;;5.28;4.47;;;12.40;98.20;;;;;;5074292;28;20231;-64
2022/04/07 02:26:58;;;;;;;13.10;10.65;;;12.30;98.20;;;;;;5075918;28;20278;-64
2022/04/07 02:29:25;;;;;;;7.18;6.10;;;12.30;98.30;;;;;;5075077;28;20220;-66
2022/04/07 02:31:53;;;;;;;8.65;6.07;;;12.30;98.30;;;;;;5075547;28;20224;-65
2022/04/07 02:34:20;;;;;;;15.63;14.02;;;12.30;98.60;;;;;;5073505;28;20216;-65
2022/04/07 02:36:47;;;;;;;14.35;11.70;;;12.20;98.60;;;;;;5073872;28;20228;-65
2022/04/07 02:39:13;;;;;;;14.35;12.20;;;12.20;98.70;;;;;;5073288;28;20235;-66
2022/04/07 02:41:40;;;;;;;7.20;6.38;;;12.30;98.70;;;;;;5073787;28;20630;-66
2022/04/07 02:44:07;;;;;;;8.95;6.65;;;12.30;98.80;;;;;;5073489;28;20247;-66
2022/04/07 02:46:34;;;;;;;9.55;8.38;;;12.20;98.70;;;;;;5073577;28;20219;-65
2022/04/07 02:49:02;;;;;;;7.00;5.80;;;12.30;98.80;;;;;;5075366;28;20697;-65
2022/04/07 02:51:31;;;;;;;6.15;5.10;;;12.20;98.90;;;;;;5074738;28;20556;-65
2022/04/07 02:53:58;;;;;;;10.40;5.35;;;12.20;98.90;;;;;;5075107;28;20227;-65
2022/04/07 02:56:25;;;;;;;7.85;7.05;;;12.20;98.90;;;;;;5074846;28;20239;-66
2022/04/07 02:58:52;;;;;;;6.03;5.53;;;12.20;99.00;;;;;;5075277;28;20216;-65
2022/04/07 03:01:19;;;;;;;7.40;6.72;;;12.20;99.40;;;;;;5074771;28;20220;-65
2022/04/07 03:03:46;;;;;;;5.68;5.13;;;12.10;99.20;;;;;;5075474;28;20247;-65
2022/04/07 03:06:14;;;;;;;4.82;4.43;;;12.10;99.30;;;;;;5074779;28;20570;-65
2022/04/07 03:08:41;;;;;;;5.50;5.05;;;11.90;99.40;;;;;;5075163;28;20219;-65
2022/04/07 03:11:15;;;;;;;13.65;8.30;;;12.00;99.50;;;;;;5074943;28;20235;-65
2022/04/07 03:13:41;;;;;;;6.85;5.88;;;12.00;99.60;;;;;;5073963;28;20961;-65
2022/04/07 03:16:09;;;;;;;4.75;4.20;;;12.00;99.60;;;;;;5074552;28;20220;-64
2022/04/07 03:18:36;;;;;;;6.22;5.63;;;12.00;99.60;;;;;;5074499;28;20224;-66
2022/04/07 03:21:04;;;;;;;7.55;5.20;;;12.00;99.60;;;;;;5074804;28;20738;-66
2022/04/07 03:23:32;;;;;;;5.57;4.50;;;12.00;99.60;;;;;;5074410;28;20224;-66
2022/04/07 03:26:00;;;;;;;6.57;4.30;;;12.00;99.70;;;;;;5074525;28;20212;-65
2022/04/07 03:28:27;;;;;;;4.95;4.50;;;11.90;99.70;;;;;;5074122;28;20219;-64
2022/04/07 03:30:54;;;;;;;4.85;4.43;;;11.90;99.90;;;;;;5074674;28;20239;-65
2022/04/07 03:33:27;;;;;;;8.98;4.95;;;11.90;99.90;;;;;;5074192;28;20223;-65
2022/04/07 03:35:54;;;;;;;5.68;4.47;;;11.90;99.80;;;;;;5074323;28;20219;-65
2022/04/07 03:38:21;;;;;;;6.78;5.47;;;11.90;99.70;;;;;;5074151;28;20235;-65
2022/04/07 03:40:49;;;;;;;6.07;5.47;;;11.90;99.70;;;;;;5074363;28;20224;-66
2022/04/07 03:43:16;;;;;;;9.27;8.25;;;12.00;99.80;;;;;;5074403;28;20224;-65
2022/04/07 03:45:43;;;;;;;6.60;5.28;;;12.00;99.80;;;;;;5074232;28;20224;-66
2022/04/07 03:48:10;;;;;;;6.85;5.45;;;12.00;99.80;;;;;;5074383;28;20325;-66
2022/04/07 03:50:37;;;;;;;7.35;5.07;;;12.00;99.80;;;;;;5073730;28;20232;-66
2022/04/07 03:53:04;;;;;;;8.50;6.47;;;12.00;99.80;;;;;;5074288;28;20228;-66
2022/04/07 03:55:31;;;;;;;8.23;6.40;;;12.00;99.80;;;;;;5073734;28;20220;-66
2022/04/07 03:57:59;;;;;;;8.15;6.80;;;12.00;99.90;;;;;;5074281;28;20691;-65
2022/04/07 04:00:27;;;;;;;10.65;9.13;;;11.90;99.90;;;;;;5073777;28;20242;-66
2022/04/07 04:02:54;;;;;;;6.13;5.53;;;11.90;99.90;;;;;;5074148;28;20220;-65
2022/04/07 04:05:21;;;;;;;6.32;4.70;;;11.90;99.90;;;;;;5073540;28;20250;-66
2022/04/07 04:07:48;;;;;;;6.75;6.07;;;11.90;99.90;;;;;;5074231;28;20216;-66
2022/04/07 04:10:15;;;;;;;5.55;5.05;;;11.90;99.90;;;;;;5073724;28;20224;-66
2022/04/07 04:12:42;;;;;;;9.57;7.45;;;12.00;99.90;;;;;;5073196;28;20231;-66
2022/04/07 04:15:10;;;;;;;9.95;6.63;;;12.00;99.90;;;;;;5073905;28;20224;-66
2022/04/07 04:17:37;;;;;;;6.78;5.07;;;12.00;99.90;;;;;;5073368;28;20232;-66
2022/04/07 04:20:05;;;;;;;4.88;4.35;;;12.00;99.90;;;;;;5073915;28;20561;-64
2022/04/07 04:22:34;;;;;;;5.55;5.05;;;11.90;99.90;;;;;;5073277;28;20566;-64
2022/04/07 04:25:01;;;;;;;5.68;5.13;;;11.90;99.90;;;;;;5073489;28;20293;-65
2022/04/07 04:27:28;;;;;;;5.53;5.00;;;11.90;99.90;;;;;;5073147;28;20254;-65
2022/04/07 04:29:55;;;;;;;6.40;5.40;;;11.90;99.90;;;;;;5073711;28;20226;-65
2022/04/07 04:32:23;;;;;;;5.47;4.93;;;11.90;99.90;;;;;;5073227;28;20239;-65
2022/04/07 04:34:50;;;;;;;5.45;4.95;;;11.90;99.90;;;;;;5073268;28;21000;-65
2022/04/07 04:37:17;;;;;;;4.70;4.30;;;12.00;99.90;;;;;;5073384;28;20223;-65
2022/04/07 04:39:44;;;;;;;24.55;17.92;;;12.00;99.90;;;;;;5073046;28;20247;-65
2022/04/07 04:42:10;;;;;;;6.13;5.63;;;12.00;99.90;;;;;;5073263;28;20224;-65
2022/04/07 04:44:37;;;;;;;6.97;5.20;;;12.10;99.90;;;;;;5072992;28;20251;-65
2022/04/07 04:47:05;;;;;;;5.35;4.85;;;12.10;99.90;;;;;;5073186;28;20216;-65
2022/04/07 04:49:33;;;;;;;5.97;4.85;;;12.20;99.90;;;;;;5073037;28;20250;-65
2022/04/07 04:52:00;;;;;;;5.70;4.68;;;12.20;99.90;;;;;;5073077;28;20220;-65
2022/04/07 04:54:26;;;;;;;6.22;4.10;;;12.20;99.90;;;;;;5073133;28;20227;-65
2022/04/07 04:56:53;;;;;;;10.75;8.10;;;12.20;99.90;;;;;;5072790;28;20383;-65
2022/04/07 04:59:20;;;;;;;4.78;4.28;;;12.10;99.90;;;;;;5073098;28;20232;-65
2022/04/07 05:01:47;;;;;;;3.95;3.55;;;12.20;99.90;;;;;;5072261;28;20231;-65
2022/04/07 05:04:15;;;;;;;4.28;3.47;;;12.20;99.90;;;;;;5072925;28;20227;-66
2022/04/07 05:06:43;;;;;;;5.47;5.03;;;12.10;99.90;;;;;;5072204;28;20565;-65
2022/04/07 05:09:10;;;;;;;5.65;4.70;;;12.10;99.90;;;;;;5072838;28;20231;-65
2022/04/07 05:11:37;;;;;;;4.53;4.13;;;12.10;99.90;;;;;;5072360;28;20239;-65
2022/04/07 05:14:04;;;;;;;6.30;4.40;;;12.20;99.90;;;;;;5072665;28;20216;-65
2022/04/07 05:16:33;;;;;;;9.35;4.18;;;12.20;99.90;;;;;;5072155;28;20224;-66
2022/04/07 05:19:00;;;;;;;5.45;4.28;;;12.30;99.90;;;;;;5072918;28;20224;-65
2022/04/07 05:21:27;;;;;;;4.60;4.00;;;12.40;99.90;;;;;;5072646;28;20304;-65
2022/04/07 05:23:55;;;;;;;3.65;3.33;;;12.40;99.90;;;;;;5072207;28;20220;-65
2022/04/07 05:26:22;;;;;;;3.90;3.60;;;12.40;99.90;;;;;;5072522;28;20223;-65
2022/04/07 05:28:49;;;;;;;9.80;5.55;;;12.50;99.90;;;;;;5072143;28;20396;-65
2022/04/07 05:31:16;;;;;;;5.78;3.80;;;12.50;99.90;;;;;;5072580;28;20228;-65
2022/04/07 05:33:43;;;;;;;10.05;8.15;;;12.50;99.90;;;;;;5072260;28;20239;-65
2022/04/07 05:36:10;;;;;;;4.05;3.65;;;12.50;99.90;;;;;;5072570;28;20212;-65
2022/04/07 05:38:36;;;;;;;8.68;7.00;;;12.50;99.90;;;;;;5071653;28;20239;-66
2022/04/07 05:41:05;;;;;;;11.73;6.90;;;12.50;99.90;;;;;;5072442;28;20299;-65
2022/04/07 05:43:32;;;;;;;4.25;3.85;;;12.50;99.90;;;;;;5072337;28;20574;-65
2022/04/07 05:45:58;;;;;;;5.55;3.25;;;12.50;99.90;;;;;;5072391;28;20220;-65
2022/04/07 05:48:25;;;;;;;3.75;3.33;;;12.40;99.90;;;;;;5072461;28;20228;-65
2022/04/07 05:50:52;;;;;;;6.43;3.30;;;12.40;99.90;;;;;;5071791;28;20223;-65
2022/04/07 05:53:19;;;;;;;4.82;3.30;;;12.40;99.90;;;;;;5072500;28;20227;-65
2022/04/07 05:55:46;;;;;;;13.18;9.07;;;12.40;99.90;;;;;;5072041;28;20223;-65
2022/04/07 05:58:15;;;;;;;4.22;3.83;;;12.40;99.90;;;;;;5072287;28;20224;-65
2022/04/07 06:00:42;;;;;;;8.50;4.00;;;12.40;99.90;;;;;;5071951;28;20239;-65
2022/04/07 06:03:09;;;;;;;4.57;4.18;;;12.40;99.90;;;;;;5072286;28;20247;-65
2022/04/07 06:05:36;;;;;;;5.80;5.20;;;12.40;99.90;;;;;;5064622;28;20220;-66
2022/04/07 06:08:04;;;;;;;4.25;3.88;;;12.50;99.90;;;;;;5052520;28;20220;-65
2022/04/07 06:10:38;;;;;;;5.38;4.45;;;12.50;99.90;;;;;;5051998;28;20233;-66
2022/04/07 06:13:06;;;;;;;7.28;5.43;;;12.40;99.90;;;;;;5051705;28;20997;-66
2022/04/07 06:15:34;;;;;;;6.10;4.90;;;12.50;99.90;;;;;;5052400;28;20225;-66
2022/04/07 06:18:01;;;;;;;9.10;6.30;;;12.50;99.90;;;;;;5051566;28;20240;-66
2022/04/07 06:20:28;;;;;;;8.27;6.38;;;12.50;99.90;;;;;;5052196;28;20553;-66
2022/04/07 06:22:54;;;;;;;5.55;3.92;;;12.40;99.90;;;;;;5051827;28;20224;-66
2022/04/07 06:25:21;;;;;;;4.65;3.53;;;12.50;99.90;;;;;;5061659;28;20216;-66
2022/04/07 06:27:48;;;;;;;2.85;2.65;;;12.60;99.90;;;;;;5071705;28;20220;-66
2022/04/07 06:30:17;;;;;;;6.43;4.30;;;12.60;99.90;;;;;;5072040;28;20231;-66
2022/04/07 06:32:46;;;;;;;3.60;3.25;;;12.60;99.90;;;;;;5071437;28;20228;-65
2022/04/07 06:35:17;;;;;;;4.22;3.35;;;12.70;99.90;;;;;;5072118;28;20239;-65
2022/04/07 06:37:53;;;;;;;5.82;3.53;;;12.70;99.90;;;;;;5071779;28;20220;-65
2022/04/07 06:40:21;;;;;;;3.28;3.08;;;12.70;99.90;;;;;;5071920;28;20227;-65
2022/04/07 06:42:48;;;;;;;5.40;4.13;;;12.70;99.90;;;;;;5071368;28;20680;-65
2022/04/07 06:45:15;;;;;;;12.98;9.98;;;12.70;99.90;;;;;;5072250;28;20231;-66
2022/04/07 06:47:42;;;;;;;6.95;5.90;;;12.70;99.90;;;;;;5071832;28;20220;-65
2022/04/07 06:50:13;;;;;;;4.10;3.60;;;12.80;99.90;;;;;;5073496;28;20295;-65
2022/04/07 06:52:40;;;;;;;5.45;2.65;;;12.90;99.90;;;;;;5075410;28;20658;-65
2022/04/07 06:55:08;;;;;;;3.80;3.50;;;12.90;99.90;;;;;;5075014;28;20539;-66
2022/04/07 06:57:48;;;;;;;2.83;2.63;;;13.00;99.90;;;;;;5075392;28;20227;-65
2022/04/07 07:00:17;;;;;;;4.45;3.30;;;12.90;99.90;;;;;;5074896;28;20238;-65
2022/04/07 07:02:45;;;;;;;5.90;3.38;;;12.90;99.90;;;;;;5075392;28;20226;-65
2022/04/07 07:05:13;;;;;;;3.53;2.75;;;13.00;99.90;;;;;;5074763;28;20224;-65
2022/04/07 07:07:40;;;;;;;3.45;3.15;;;13.00;99.90;;;;;;5075176;28;20216;-65
2022/04/07 07:10:07;;;;;;;2.92;2.72;;;13.00;99.90;;;;;;5074697;28;20238;-65
2022/04/07 07:12:34;;;;;;;5.03;4.53;;;13.10;99.90;;;;;;5074996;28;20248;-65
2022/04/07 07:15:00;;;;;;;6.95;6.13;;;13.20;99.90;;;;;;5074446;28;20220;-65
2022/04/07 07:17:33;;;;;;;5.90;5.20;;;13.20;99.90;;;;;;5075110;28;20251;-65
2022/04/07 07:20:07;;;;;;;4.40;3.80;;;13.30;99.90;;;;;;5074564;28;20307;-65
2022/04/07 07:22:35;;;;;;;2.70;2.50;;;13.40;99.90;;;;;;5074788;28;20227;-65
2022/04/07 07:25:02;;;;;;;3.53;2.90;;;13.40;99.80;;;;;;5067428;28;20228;-65
2022/04/07 07:27:35;;;;;;;3.42;3.13;;;13.40;99.60;;;;;;5054705;28;20224;-65
2022/04/07 07:30:02;;;;;;;4.07;3.63;;;13.40;99.40;;;;;;5054450;28;20225;-65
2022/04/07 07:32:29;;;;;;;3.28;2.97;;;13.50;99.40;;;;;;5054816;28;20229;-65
2022/04/07 07:34:56;;;;;;;5.45;2.33;;;13.50;99.30;;;;;;5054107;28;20236;-65
2022/04/07 07:37:22;;;;;;;3.70;2.72;;;13.60;99.10;;;;;;5054861;28;20224;-65
2022/04/07 07:39:51;;;;;;;2.55;2.35;;;13.70;98.80;;;;;;5054749;28;20571;-65
2022/04/07 07:42:18;;;;;;;2.63;2.25;;;13.80;98.50;;;;;;5055411;28;20237;-65
2022/04/07 07:44:44;;;;;;;5.00;2.75;;;13.90;98.30;;;;;;5074587;28;20569;-65
2022/04/07 07:47:11;;;;;;;3.83;2.30;;;13.90;97.90;;;;;;5074257;28;20227;-65
2022/04/07 07:49:38;;;;;;;3.90;2.15;;;14.00;97.90;;;;;;5074365;28;20573;-65
2022/04/07 07:52:08;;;;;;;3.63;2.80;;;14.10;97.60;;;;;;5073861;28;20231;-65
2022/04/07 07:54:35;;;;;;;3.33;3.03;;;14.10;97.50;;;;;;5074269;28;20470;-65
2022/04/07 07:57:04;;;;;;;3.60;2.77;;;14.20;97.50;;;;;;5073762;28;20470;-65
2022/04/07 07:59:30;;;;;;;1.50;1.40;;;14.30;97.10;;;;;;5074011;28;20481;-65
2022/04/07 08:01:57;;;;;;;2.10;1.90;;;14.30;96.50;;;;;;5073204;28;20474;-65
2022/04/07 08:04:24;;;;;;;3.43;1.80;;;14.30;96.60;;;;;;5073909;28;20470;-65
2022/04/07 08:06:51;;;;;;;2.60;1.90;;;14.30;96.60;;;;;;5073950;28;20466;-65
2022/04/07 08:09:18;;;;;;;2.43;2.23;;;14.30;96.40;;;;;;5073774;28;20231;-65
2022/04/07 08:11:45;;;;;;;3.47;3.17;;;14.40;96.60;;;;;;5073982;28;20467;-65
2022/04/07 08:14:13;;;;;;;5.03;3.80;;;14.50;96.60;;;;;;5073235;28;20462;-65
2022/04/07 08:16:40;;;;;;;2.00;1.73;;;14.60;96.50;;;;;;5074046;28;20496;-66
2022/04/07 08:19:09;;;;;;;2.53;2.33;;;14.60;96.30;;;;;;5073300;28;20481;-66
2022/04/07 08:21:36;;;;;;;4.70;4.30;;;14.50;96.40;;;;;;5073851;28;20467;-66
2022/04/07 08:24:03;;;;;;;3.67;2.10;;;14.50;96.40;;;;;;5073418;28;20583;-65
2022/04/07 08:26:29;;;;;;;2.77;1.80;;;14.50;96.40;;;;;;5054496;28;20474;-66
2022/04/07 08:28:56;;;;;;;3.30;1.67;;;14.50;96.50;;;;;;5053778;28;20463;-66
2022/04/07 08:31:25;;;;;;;1.70;1.60;;;14.50;96.40;;;;;;5053005;28;20478;-66
2022/04/07 08:33:52;;;;;;;2.63;1.70;;;14.50;96.40;;;;;;5053287;28;20471;-66
2022/04/07 08:36:19;;;;;;;3.90;1.73;;;14.60;96.50;;;;;;5053106;28;20455;-65
2022/04/07 08:38:45;;;;;;;2.07;1.87;;;14.60;96.30;;;;;;5053352;28;20467;-67
2022/04/07 08:41:12;;;;;;;2.00;1.90;;;14.70;96.20;;;;;;5054432;28;20467;-65
2022/04/07 08:43:42;;;;;;;2.57;2.07;;;14.80;96.00;;;;;;5073382;28;20861;-65
2022/04/07 08:46:11;;;;;;;4.13;1.43;;;14.80;95.60;;;;;;5072769;28;21028;-65
2022/04/07 08:48:40;;;;;;;1.80;1.70;;;14.90;95.50;;;;;;5073137;28;20466;-66
2022/04/07 08:51:07;;;;;;;2.20;1.43;;;14.90;95.50;;;;;;5072608;28;20558;-65
2022/04/07 08:53:35;;;;;;;1.73;1.63;;;14.90;95.50;;;;;;5073080;28;20463;-66
2022/04/07 08:56:03;;;;;;;2.00;1.70;;;15.00;95.40;;;;;;5072647;28;20466;-65
2022/04/07 08:58:30;;;;;;;2.37;1.70;;;15.00;95.20;;;;;;5073153;28;20459;-66
2022/04/07 09:00:59;;;;;;;3.40;2.07;;;15.10;94.80;;;;;;5072823;28;20474;-66
2022/04/07 09:03:26;;;;;;;4.90;3.07;;;15.10;94.90;;;;;;5073007;28;21176;-66
2022/04/07 09:05:59;;;;;;;4.33;2.80;;;15.10;94.90;;;;;;5073083;28;20466;-66
2022/04/07 09:08:33;;;;;;;2.27;2.07;;;15.10;94.90;;;;;;5072773;28;20927;-64
2022/04/07 09:11:01;;;;;;;6.03;1.67;;;15.10;94.70;;;;;;5072783;28;20469;-65
2022/04/07 09:13:34;;;;;;;4.03;1.90;;;15.00;94.70;;;;;;5071593;28;20461;-65
2022/04/07 09:16:03;;;;;;;1.60;1.50;;;15.10;94.90;;;;;;5072914;28;20535;-65
2022/04/07 09:18:34;;;;;;;4.20;2.13;;;15.10;95.00;;;;;;5072523;28;21604;-65
2022/04/07 09:21:03;;;;;;;1.30;1.20;;;15.00;95.10;;;;;;5059018;28;20482;-65
2022/04/07 09:23:30;;;;;;;2.30;1.40;;;15.00;95.20;;;;;;5052523;28;20455;-65
2022/04/07 09:26:00;;;;;;;3.63;2.03;;;15.10;95.30;;;;;;5067182;28;20470;-65
2022/04/07 09:28:28;;;;;;;1.60;1.20;;;15.10;95.00;;;;;;5072177;28;20458;-65
2022/04/07 09:30:57;;;;;;;2.37;1.63;;;15.10;94.90;;;;;;5072564;28;20470;-64
2022/04/07 09:33:25;;;;;;;2.17;1.10;;;15.20;95.00;;;;;;5072100;28;20478;-64
2022/04/07 09:35:59;;;;;;;2.63;1.77;;;15.30;94.90;;;;;;5072620;28;20985;-65
2022/04/07 09:38:29;;;;;;;2.50;1.30;;;15.40;94.90;;;;;;5072093;28;20461;-65
2022/04/07 09:41:04;;;;;;;1.27;0.97;;;15.50;94.90;;;;;;5072626;28;20478;-65
2022/04/07 09:43:31;;;;;;;1.83;0.70;;;15.50;94.40;;;;;;5072111;28;20462;-65
2022/04/07 09:45:57;;;;;;;3.30;1.30;;;15.40;93.80;;;;;;5072484;28;20462;-65
2022/04/07 09:48:27;;;;;;;2.50;1.30;;;15.40;93.80;;;;;;5072033;28;20466;-64
2022/04/07 09:51:05;;;;;;;1.70;1.60;;;15.40;93.90;;;;;;5072352;28;20599;-65
2022/04/07 09:53:37;;;;;;;2.70;2.00;;;15.40;93.90;;;;;;5071914;28;20455;-64
2022/04/07 09:56:05;;;;;;;11.77;2.30;;;15.50;93.90;;;;;;5072361;28;20535;-65
2022/04/07 09:58:33;;;;;;;5.97;1.20;;;15.50;93.50;;;;;;5071941;28;20463;-65
2022/04/07 10:01:02;;;;;;;2.40;1.27;;;15.50;93.30;;;;;;5072212;28;20788;-65
2022/04/07 10:03:30;;;;;;;1.40;1.30;;;15.40;93.00;;;;;;5071817;28;20461;-65
2022/04/07 10:05:58;;;;;;;4.20;1.30;;;15.30;93.00;;;;;;5072238;28;20500;-64
2022/04/07 10:08:25;;;;;;;2.33;1.07;;;15.30;93.20;;;;;;5071759;28;20481;-66
2022/04/07 10:10:55;;;;;;;1.10;0.87;;;15.30;93.30;;;;;;5072237;28;20584;-64
2022/04/07 10:13:22;;;;;;;2.43;2.00;;;15.40;93.40;;;;;;5071583;28;20473;-65
2022/04/07 10:15:49;;;;;;;3.07;2.23;;;15.40;93.60;;;;;;5072114;28;20695;-65
2022/04/07 10:18:24;;;;;;;5.00;1.90;;;15.40;93.30;;;;;;5071616;28;20470;-65
2022/04/07 10:20:57;;;;;;;4.93;1.40;;;15.50;93.30;;;;;;5072187;28;20818;-66
2022/04/07 10:23:47;;;;;;;2.27;1.97;;;15.60;93.10;;;;;;5072438;28;20516;-65
2022/04/07 10:26:17;;;;;;;1.33;1.20;;;15.60;93.10;;;;;;5058437;28;20463;-64
2022/04/07 10:28:50;;;;;;;3.23;1.40;;;15.60;92.90;;;;;;5055846;28;20462;-65
2022/04/07 10:31:17;;;;;;;3.17;2.23;;;15.60;92.90;;;;;;5055415;28;20466;-65
2022/04/07 10:33:46;;;;;;;3.57;1.20;;;15.70;93.00;;;;;;5055909;28;20463;-65
2022/04/07 10:36:16;;;;;;;1.40;1.00;;;15.70;93.10;;;;;;5054846;28;20468;-65
2022/04/07 10:38:44;;;;;;;3.50;3.20;;;15.70;93.20;;;;;;5055669;28;20467;-65
2022/04/07 10:41:11;;;;;;;3.57;3.00;;;15.60;93.00;;;;;;5055153;28;20471;-65
2022/04/07 10:43:40;;;;;;;2.40;1.77;;;15.60;93.30;;;;;;5068104;28;20465;-65
2022/04/07 10:46:18;;;;;;;3.20;0.97;;;15.50;93.30;;;;;;5075372;28;20469;-64
2022/04/07 10:48:49;;;;;;;2.37;1.37;;;15.40;93.70;;;;;;5075502;28;20454;-65
2022/04/07 10:51:16;;;;;;;3.47;1.40;;;15.40;94.30;;;;;;5075551;28;20477;-64
2022/04/07 10:54:02;;;;;;;4.97;4.13;;;15.40;94.70;;;;;;5074790;28;20554;-65
2022/04/07 10:56:32;;;;;;;7.90;4.10;;;15.40;95.00;;;;;;5074739;28;20466;-65
2022/04/07 10:59:13;;;;;;;2.03;1.83;;;15.50;95.50;;;;;;5057563;28;20461;-65
2022/04/07 11:01:59;;;;;;;2.00;1.50;;;15.50;96.10;;;;;;5054689;28;20475;-66
2022/04/07 11:05:04;;;;;;;3.80;2.90;;;15.50;96.20;;;;;;5054984;28;20481;-65
2022/04/07 11:07:37;;;;;;;6.83;5.60;;;15.50;96.40;;;;;;5054582;28;20546;-65
2022/04/07 11:10:14;;;;;;;1.57;1.00;;;15.50;97.10;;;;;;5055400;28;20467;-65
2022/04/07 11:12:44;;;;;;;2.43;1.50;;;15.30;96.50;;;;;;5054587;28;20475;-65
2022/04/07 11:15:27;;;;;;;5.80;5.30;;;15.20;96.40;;;;;;5054387;28;20808;-64
2022/04/07 11:17:56;;;;;;;4.53;3.60;;;15.10;96.50;;;;;;5054011;28;20447;-65
2022/04/07 11:20:24;;;;;;;2.40;2.20;;;15.10;96.70;;;;;;5053957;28;21028;-66
2022/04/07 11:22:54;;;;;;;1.63;1.40;;;15.10;96.70;;;;;;5053663;28;20455;-65
2022/04/07 11:25:25;;;;;;;4.87;1.90;;;15.10;96.40;;;;;;5053881;28;20471;-65
2022/04/07 11:28:14;;;;;;;2.30;2.10;;;15.10;96.40;;;;;;5053593;28;20463;-65
2022/04/07 11:30:46;;;;;;;3.80;2.80;;;15.10;96.60;;;;;;5049663;28;20475;-64
2022/04/07 11:33:28;;;;;;;4.00;3.00;;;15.10;96.20;;;;;;5054742;28;20463;-64
2022/04/07 11:36:37;;;;;;;6.80;3.10;;;15.00;96.30;;;;;;5053669;28;20462;-65
2022/04/07 11:39:04;;;;;;;3.53;1.73;;;15.10;96.30;;;;;;5054366;28;20942;-65
2022/04/07 11:41:42;;;;;;;2.73;1.70;;;15.10;96.40;;;;;;5054534;28;20483;-66
2022/04/07 11:44:11;;;;;;;2.30;1.23;;;15.10;96.20;;;;;;5071273;28;20446;-65
2022/04/07 11:46:40;;;;;;;3.63;1.10;;;15.10;95.60;;;;;;5074404;28;20972;-65
2022/04/07 11:49:07;;;;;;;2.13;1.40;;;15.20;95.90;;;;;;5074006;28;20461;-65
2022/04/07 11:51:37;;;;;;;2.03;1.20;;;15.20;95.70;;;;;;5074415;28;20471;-65
2022/04/07 11:54:05;;;;;;;3.63;1.87;;;15.20;96.20;;;;;;5073874;28;20466;-65
2022/04/07 11:56:33;;;;;;;5.23;2.83;;;15.20;97.00;;;;;;5069057;28;20470;-66
2022/04/07 11:59:02;;;;;;;2.67;1.53;;;15.10;97.20;;;;;;5052010;28;20533;-66
2022/04/07 12:01:29;;;;;;;6.00;2.40;;;15.10;97.70;;;;;;5052183;28;21015;-65
2022/04/07 12:04:00;;;;;;;2.27;1.20;;;15.00;97.90;;;;;;5051973;28;20554;-65
2022/04/07 12:06:29;;;;;;;9.70;6.77;;;14.90;98.10;;;;;;5052424;28;20468;-65
2022/04/07 12:08:57;;;;;;;1.63;1.53;;;14.90;98.40;;;;;;5051803;28;20467;-65
2022/04/07 12:11:25;;;;;;;1.67;1.47;;;14.90;98.90;;;;;;5052725;28;20471;-65
2022/04/07 12:13:53;;;;;;;3.43;2.90;;;14.90;99.10;;;;;;5053220;28;20474;-65
2022/04/07 12:16:20;;;;;;;1.70;1.40;;;14.80;99.00;;;;;;5053725;28;20467;-65
2022/04/07 12:18:54;;;;;;;2.07;1.57;;;14.70;99.50;;;;;;5053298;28;20479;-66
2022/04/07 12:21:25;;;;;;;2.90;1.70;;;14.70;99.70;;;;;;5053957;28;20550;-65
2022/04/07 12:24:07;;;;;;;2.20;1.60;;;14.70;99.90;;;;;;5053586;28;20565;-66
2022/04/07 12:26:39;;;;;;;1.60;1.50;;;14.60;99.90;;;;;;5066842;28;20471;-65
2022/04/07 12:29:06;;;;;;;3.30;1.60;;;14.70;99.90;;;;;;5052720;28;20459;-65
2022/04/07 12:31:33;;;;;;;6.67;3.50;;;14.60;99.90;;;;;;5052961;28;20811;-65
2022/04/07 12:34:07;;;;;;;4.53;4.13;;;14.50;99.90;;;;;;5052505;28;20467;-66
2022/04/07 12:36:40;;;;;;;2.30;2.07;;;14.40;99.90;;;;;;5053471;28;20984;-65
2022/04/07 12:39:09;;;;;;;2.30;2.10;;;14.40;99.90;;;;;;5052950;28;20807;-65
2022/04/07 12:41:39;;;;;;;2.83;2.30;;;14.40;99.90;;;;;;5053436;28;20525;-65
2022/04/07 12:44:06;;;;;;;5.30;1.95;;;14.40;99.90;;;;;;5068015;28;20455;-66
2022/04/07 12:46:47;;;;;;;2.00;1.47;;;14.30;99.90;;;;;;5072917;28;20567;-65
2022/04/07 12:49:15;;;;;;;2.03;1.63;;;14.30;99.90;;;;;;5072925;28;20450;-64
2022/04/07 12:51:43;;;;;;;2.93;1.10;;;14.30;99.90;;;;;;5073090;28;20987;-67
2022/04/07 12:54:12;;;;;;;5.03;2.37;;;14.40;99.90;;;;;;5072553;28;20445;-65